Time;durP1;ratioP1;P1;durP2;ratioP2;P2;SDS_P1;SDS_P2;PMS_P1;PMS_P2;Temp;Humidity;BMP_temperature;BMP_pressure;BME280_temperature;BME280_humidity;BME280_pressure;Samples;Min_cycle;Max_cycle;Signal;HPM_P1;HPM_P2
2023/12/30 00:01:13;;;;;;;0.95;0.30;;;10.20;99.90;;;;;;4975458;28;20496;-61
2023/12/30 00:03:39;;;;;;;0.93;0.35;;;10.10;99.90;;;;;;4981748;28;20049;-61
2023/12/30 00:06:04;;;;;;;1.73;0.43;;;10.20;99.90;;;;;;4979094;28;20415;-61
2023/12/30 00:08:30;;;;;;;1.33;0.30;;;10.20;99.90;;;;;;4981642;28;20070;-61
2023/12/30 00:10:56;;;;;;;2.00;0.50;;;10.20;99.90;;;;;;4979273;28;20030;-61
2023/12/30 00:13:22;;;;;;;2.20;0.30;;;10.20;99.90;;;;;;4979488;28;20750;-61
2023/12/30 00:15:47;;;;;;;3.53;0.60;;;10.30;99.90;;;;;;4980839;28;20482;-61
2023/12/30 00:18:14;;;;;;;0.55;0.28;;;10.20;99.90;;;;;;4981454;28;20509;-61
2023/12/30 00:20:40;;;;;;;1.38;0.40;;;10.10;99.90;;;;;;4982114;28;20023;-61
2023/12/30 00:23:06;;;;;;;2.13;0.25;;;10.10;99.90;;;;;;4977178;28;20046;-61
2023/12/30 00:25:33;;;;;;;2.72;0.50;;;10.10;99.90;;;;;;4983223;28;20130;-62
2023/12/30 00:27:58;;;;;;;1.55;0.30;;;10.00;99.90;;;;;;4976468;28;20078;-61
2023/12/30 00:30:24;;;;;;;3.40;0.60;;;9.90;99.90;;;;;;4966594;28;20041;-61
2023/12/30 00:32:50;;;;;;;2.28;0.50;;;9.80;99.90;;;;;;4984014;28;20739;-61
2023/12/30 00:35:15;;;;;;;1.08;0.30;;;9.80;99.90;;;;;;4983134;28;20554;-61
2023/12/30 00:37:41;;;;;;;2.03;0.50;;;9.90;99.90;;;;;;4977003;28;20042;-61
2023/12/30 00:40:07;;;;;;;2.45;0.47;;;9.90;99.90;;;;;;4978847;28;20039;-61
2023/12/30 00:42:33;;;;;;;1.17;0.40;;;9.90;99.90;;;;;;4979785;28;20479;-61
2023/12/30 00:44:59;;;;;;;1.02;0.75;;;9.90;99.90;;;;;;4977779;28;20034;-62
2023/12/30 00:47:25;;;;;;;5.53;0.38;;;10.00;99.90;;;;;;4983842;28;20022;-61
2023/12/30 00:49:50;;;;;;;3.45;0.52;;;10.00;99.90;;;;;;4976475;28;20587;-61
2023/12/30 00:52:16;;;;;;;1.17;0.40;;;10.10;99.90;;;;;;4981825;28;20039;-61
2023/12/30 00:54:42;;;;;;;3.13;0.45;;;10.10;99.90;;;;;;4981082;28;20037;-61
2023/12/30 00:57:08;;;;;;;2.28;0.45;;;10.20;99.90;;;;;;4987541;28;20038;-61
2023/12/30 00:59:34;;;;;;;0.93;0.60;;;10.20;99.90;;;;;;4987640;28;20125;-61
2023/12/30 01:01:59;;;;;;;1.23;0.90;;;10.10;99.90;;;;;;4987477;28;20034;-61
2023/12/30 01:04:25;;;;;;;1.70;0.75;;;10.20;99.90;;;;;;4982466;28;20529;-61
2023/12/30 01:06:51;;;;;;;1.98;0.50;;;10.10;99.90;;;;;;4985445;28;20105;-61
2023/12/30 01:09:17;;;;;;;3.03;0.52;;;10.00;99.90;;;;;;4982305;28;20442;-61
2023/12/30 01:11:43;;;;;;;1.00;0.50;;;9.90;99.90;;;;;;4983449;28;20022;-61
2023/12/30 01:14:09;;;;;;;1.70;0.40;;;9.90;99.90;;;;;;4978740;28;20038;-62
2023/12/30 01:16:36;;;;;;;1.75;0.55;;;9.90;99.90;;;;;;4982000;28;20601;-61
2023/12/30 01:19:02;;;;;;;2.05;0.40;;;9.90;99.90;;;;;;4980863;28;20026;-61
2023/12/30 01:21:28;;;;;;;1.90;0.45;;;9.80;99.90;;;;;;4987245;28;20037;-61
2023/12/30 01:23:54;;;;;;;2.38;0.40;;;9.80;99.90;;;;;;4987325;28;20022;-61
2023/12/30 01:26:19;;;;;;;1.63;0.40;;;9.80;99.90;;;;;;4983660;28;20029;-61
2023/12/30 01:28:45;;;;;;;0.38;0.38;;;9.90;99.90;;;;;;4981684;28;20124;-61
2023/12/30 01:31:11;;;;;;;4.45;0.30;;;9.90;99.90;;;;;;4984012;28;20038;-61
2023/12/30 01:33:37;;;;;;;2.95;0.45;;;9.80;99.90;;;;;;4986355;28;20068;-61
2023/12/30 01:36:04;;;;;;;3.55;0.50;;;9.70;99.90;;;;;;4981970;28;20078;-61
2023/12/30 01:38:29;;;;;;;3.42;0.57;;;9.70;99.90;;;;;;4984885;28;20117;-61
2023/12/30 01:40:56;;;;;;;2.45;0.68;;;9.60;99.90;;;;;;4976400;28;20254;-62
2023/12/30 01:43:27;;;;;;;1.25;0.10;;;9.40;99.90;;;;;;4987004;28;20027;-61
2023/12/30 01:45:55;;;;;;;2.08;0.60;;;9.50;99.90;;;;;;4978707;28;20022;-61
2023/12/30 01:48:21;;;;;;;1.15;0.40;;;9.30;99.90;;;;;;4986536;28;20053;-61
2023/12/30 01:50:49;;;;;;;1.10;0.40;;;9.30;99.90;;;;;;4979323;28;20038;-61
2023/12/30 01:53:17;;;;;;;1.65;0.50;;;9.30;99.90;;;;;;4983000;28;20038;-61
2023/12/30 01:55:44;;;;;;;0.95;0.40;;;9.10;99.90;;;;;;4979328;28;20141;-61
2023/12/30 01:58:10;;;;;;;1.05;0.40;;;8.90;99.90;;;;;;4984764;28;20481;-61
2023/12/30 02:00:38;;;;;;;0.75;0.28;;;8.80;99.90;;;;;;4980021;28;20444;-61
2023/12/30 02:03:04;;;;;;;5.15;0.50;;;8.80;99.90;;;;;;4985539;28;20058;-61
2023/12/30 02:05:31;;;;;;;2.58;0.50;;;8.80;99.90;;;;;;4982335;28;20502;-62
2023/12/30 02:07:58;;;;;;;1.30;0.30;;;8.70;99.90;;;;;;4976713;28;20043;-61
2023/12/30 02:10:24;;;;;;;1.05;0.30;;;8.70;99.90;;;;;;4984014;28;20038;-61
2023/12/30 02:12:50;;;;;;;0.47;0.25;;;8.70;99.90;;;;;;4979914;28;20574;-61
2023/12/30 02:15:17;;;;;;;1.27;0.40;;;8.70;99.90;;;;;;4981120;28;20034;-61
2023/12/30 02:17:44;;;;;;;1.67;0.30;;;8.70;99.90;;;;;;4980713;28;20064;-61
2023/12/30 02:20:10;;;;;;;1.50;0.40;;;8.70;99.90;;;;;;4986225;28;20042;-61
2023/12/30 02:22:46;;;;;;;1.02;0.43;;;8.50;99.90;;;;;;4986086;28;20030;-61
2023/12/30 02:25:12;;;;;;;1.80;0.25;;;8.40;99.90;;;;;;4986250;28;20069;-61
2023/12/30 02:27:38;;;;;;;2.65;0.40;;;8.40;99.90;;;;;;4986097;28;20069;-61
2023/12/30 02:30:04;;;;;;;0.63;0.30;;;8.60;99.90;;;;;;4982865;28;20026;-61
2023/12/30 02:32:31;;;;;;;2.47;0.57;;;8.40;99.90;;;;;;4966401;28;20034;-61
2023/12/30 02:34:57;;;;;;;0.70;0.35;;;8.40;99.90;;;;;;4983019;28;20112;-61
2023/12/30 02:37:22;;;;;;;3.67;0.57;;;8.40;99.90;;;;;;4980763;28;20023;-62
2023/12/30 02:39:48;;;;;;;2.17;0.22;;;8.40;99.90;;;;;;4981399;28;20022;-61
2023/12/30 02:42:14;;;;;;;0.52;0.30;;;8.30;99.90;;;;;;4978811;28;20030;-61
2023/12/30 02:44:40;;;;;;;2.05;0.25;;;8.30;99.90;;;;;;4981240;28;20097;-61
2023/12/30 02:47:05;;;;;;;1.35;0.40;;;8.50;99.90;;;;;;4984406;28;20169;-61
2023/12/30 02:49:33;;;;;;;4.40;0.43;;;8.20;99.90;;;;;;4980048;28;20038;-61
2023/12/30 02:51:59;;;;;;;2.03;0.30;;;8.20;99.90;;;;;;4985585;28;20034;-61
2023/12/30 02:54:26;;;;;;;3.30;0.50;;;8.00;99.90;;;;;;4982812;28;20042;-61
2023/12/30 02:56:51;;;;;;;0.98;0.32;;;8.00;99.90;;;;;;4980497;28;20181;-61
2023/12/30 02:59:17;;;;;;;0.90;0.40;;;8.10;99.90;;;;;;4980565;28;20124;-61
2023/12/30 03:01:43;;;;;;;0.55;0.45;;;8.20;99.90;;;;;;4980309;28;20168;-61
2023/12/30 03:04:09;;;;;;;2.83;0.50;;;8.20;99.90;;;;;;4978120;28;20039;-61
2023/12/30 03:06:35;;;;;;;0.57;0.28;;;8.10;99.90;;;;;;4983408;28;20470;-61
2023/12/30 03:09:01;;;;;;;2.50;0.30;;;8.10;99.90;;;;;;4975356;28;20407;-61
2023/12/30 03:11:27;;;;;;;0.55;0.38;;;8.10;99.90;;;;;;4983614;28;20030;-61
2023/12/30 03:13:53;;;;;;;1.30;0.57;;;8.10;99.90;;;;;;4975874;28;20030;-61
2023/12/30 03:16:19;;;;;;;1.02;0.20;;;8.20;99.90;;;;;;4982074;28;20084;-61
2023/12/30 03:18:46;;;;;;;0.85;0.40;;;8.10;99.90;;;;;;4976640;28;21032;-61
2023/12/30 03:21:16;;;;;;;1.48;0.40;;;8.10;99.90;;;;;;4981294;28;20074;-61
2023/12/30 03:23:42;;;;;;;3.20;0.20;;;8.10;99.90;;;;;;4980292;28;20034;-61
2023/12/30 03:26:09;;;;;;;0.93;0.40;;;8.00;99.90;;;;;;4983705;28;20023;-61
2023/12/30 03:28:35;;;;;;;2.25;0.30;;;7.90;99.90;;;;;;4983927;28;20023;-61
2023/12/30 03:31:02;;;;;;;0.77;0.40;;;8.00;99.90;;;;;;4981634;28;20129;-61
2023/12/30 03:33:28;;;;;;;0.40;0.40;;;8.00;99.90;;;;;;4984734;28;20038;-61
2023/12/30 03:35:54;;;;;;;1.90;0.30;;;8.00;99.90;;;;;;4974561;28;20125;-61
2023/12/30 03:38:20;;;;;;;0.98;0.20;;;8.20;99.90;;;;;;4981643;28;20121;-61
2023/12/30 03:40:47;;;;;;;1.45;0.20;;;8.30;99.90;;;;;;4981496;28;20468;-61
2023/12/30 03:43:13;;;;;;;0.30;0.30;;;8.20;99.90;;;;;;4981646;28;20062;-61
2023/12/30 03:45:39;;;;;;;2.00;0.38;;;8.20;99.90;;;;;;4984863;28;20067;-61
2023/12/30 03:48:07;;;;;;;0.32;0.17;;;8.30;99.90;;;;;;4984492;28;20027;-61
2023/12/30 03:50:33;;;;;;;0.45;0.20;;;8.30;99.90;;;;;;4984664;28;20030;-61
2023/12/30 03:52:59;;;;;;;0.40;0.30;;;8.30;99.90;;;;;;4981391;28;20421;-61
2023/12/30 03:55:25;;;;;;;1.00;0.28;;;8.30;99.90;;;;;;4979483;28;20121;-61
2023/12/30 03:57:53;;;;;;;0.93;0.20;;;8.30;99.90;;;;;;4981795;28;20105;-61
2023/12/30 04:00:19;;;;;;;1.65;0.13;;;8.40;99.90;;;;;;4977571;28;20037;-61
2023/12/30 04:02:47;;;;;;;0.63;0.20;;;8.50;99.90;;;;;;4978480;28;20077;-61
2023/12/30 04:05:13;;;;;;;2.45;0.20;;;8.50;99.90;;;;;;4974820;28;20833;-61
2023/12/30 04:07:38;;;;;;;0.20;0.10;;;8.50;99.90;;;;;;4980987;28;20879;-61
2023/12/30 04:10:05;;;;;;;0.30;0.20;;;8.60;99.90;;;;;;4976463;28;20041;-61
2023/12/30 04:12:33;;;;;;;0.10;0.10;;;8.60;99.90;;;;;;4981783;28;20483;-61
2023/12/30 04:14:58;;;;;;;0.08;0.03;;;8.70;99.90;;;;;;4984676;28;20136;-61
2023/12/30 04:17:24;;;;;;;0.13;0.10;;;8.60;99.90;;;;;;4984695;28;20113;-61
2023/12/30 04:19:50;;;;;;;1.10;0.20;;;8.60;99.90;;;;;;4977795;28;20044;-61
2023/12/30 04:22:16;;;;;;;0.38;0.20;;;8.50;99.90;;;;;;4978801;28;20101;-61
2023/12/30 04:24:42;;;;;;;0.40;0.17;;;8.60;99.90;;;;;;4980297;28;20041;-61
2023/12/30 04:27:07;;;;;;;0.57;0.17;;;8.60;99.90;;;;;;4979660;28;20037;-61
2023/12/30 04:29:33;;;;;;;1.02;0.20;;;8.50;99.90;;;;;;4985332;28;20038;-61
2023/12/30 04:31:59;;;;;;;1.42;0.10;;;8.50;99.90;;;;;;4978134;28;20642;-61
2023/12/30 04:34:25;;;;;;;2.17;0.30;;;8.50;99.90;;;;;;4988220;28;20030;-61
2023/12/30 04:36:50;;;;;;;0.52;0.10;;;8.50;99.90;;;;;;4979691;28;20499;-61
2023/12/30 04:39:16;;;;;;;0.80;0.13;;;8.50;99.90;;;;;;4984640;28;20439;-61
2023/12/30 04:41:42;;;;;;;0.35;0.30;;;8.30;99.90;;;;;;4980851;28;20040;-61
2023/12/30 04:44:08;;;;;;;0.10;0.10;;;8.30;99.90;;;;;;4983987;28;20420;-61
2023/12/30 04:46:34;;;;;;;0.93;0.20;;;8.20;99.90;;;;;;4985705;28;20031;-61
2023/12/30 04:49:02;;;;;;;1.33;0.20;;;7.90;99.90;;;;;;4986906;28;20038;-61
2023/12/30 04:51:29;;;;;;;1.50;0.22;;;7.90;99.90;;;;;;4981965;28;20033;-61
2023/12/30 04:53:56;;;;;;;1.23;0.20;;;7.80;99.90;;;;;;4982162;28;20057;-61
2023/12/30 04:56:22;;;;;;;1.58;0.30;;;7.90;99.90;;;;;;4982527;28;20116;-61
2023/12/30 04:58:50;;;;;;;0.22;0.20;;;7.90;99.90;;;;;;4980992;28;20041;-61
2023/12/30 05:01:16;;;;;;;0.50;0.17;;;7.90;99.90;;;;;;4982006;28;20371;-61
2023/12/30 05:03:42;;;;;;;1.48;0.20;;;7.90;99.90;;;;;;4984554;28;20027;-61
2023/12/30 05:06:18;;;;;;;0.73;0.50;;;7.90;99.90;;;;;;4984372;28;20038;-61
2023/12/30 05:08:44;;;;;;;1.35;0.40;;;8.00;99.90;;;;;;4982358;28;20406;-61
2023/12/30 05:11:10;;;;;;;0.43;0.13;;;7.90;99.90;;;;;;4987531;28;20477;-61
2023/12/30 05:13:36;;;;;;;0.47;0.20;;;8.00;99.90;;;;;;4976710;28;20041;-61
2023/12/30 05:16:02;;;;;;;0.38;0.28;;;7.90;99.90;;;;;;4978518;28;20050;-61
2023/12/30 05:18:27;;;;;;;0.05;0.05;;;7.80;99.90;;;;;;4981870;28;20112;-61
2023/12/30 05:20:53;;;;;;;0.88;0.20;;;7.80;99.90;;;;;;4984168;28;20033;-62
2023/12/30 05:23:19;;;;;;;0.13;0.10;;;7.80;99.90;;;;;;4981952;28;20027;-61
2023/12/30 05:25:45;;;;;;;1.85;0.40;;;7.80;99.90;;;;;;4982739;28;20034;-61
2023/12/30 05:28:10;;;;;;;3.90;0.30;;;7.70;99.90;;;;;;4981053;28;20121;-61
2023/12/30 05:30:36;;;;;;;0.90;0.20;;;7.60;99.90;;;;;;4983637;28;20038;-61
2023/12/30 05:33:02;;;;;;;1.48;0.20;;;7.50;99.90;;;;;;4980478;28;20146;-61
2023/12/30 05:35:28;;;;;;;1.55;0.20;;;7.40;99.90;;;;;;4986846;28;20173;-61
2023/12/30 05:37:54;;;;;;;0.30;0.20;;;7.30;99.90;;;;;;4980418;28;20490;-62
2023/12/30 05:40:19;;;;;;;3.17;0.57;;;7.30;99.90;;;;;;4984356;28;20621;-61
2023/12/30 05:42:45;;;;;;;0.20;0.20;;;7.20;99.90;;;;;;4982183;28;20038;-61
2023/12/30 05:45:11;;;;;;;1.17;0.20;;;7.20;99.90;;;;;;4982915;28;20042;-61
2023/12/30 05:47:37;;;;;;;1.48;0.20;;;7.20;99.90;;;;;;4986156;28;20030;-61
2023/12/30 05:50:03;;;;;;;5.88;0.50;;;7.20;99.90;;;;;;4981331;28;20128;-61
2023/12/30 05:52:28;;;;;;;3.15;0.10;;;7.30;99.90;;;;;;4983788;28;20536;-62
2023/12/30 05:54:54;;;;;;;4.22;0.40;;;7.30;99.90;;;;;;4981073;28;20148;-62
2023/12/30 05:57:20;;;;;;;1.10;0.20;;;7.30;99.90;;;;;;4977753;28;20030;-61
2023/12/30 05:59:45;;;;;;;3.38;0.40;;;7.30;99.90;;;;;;4978693;28;20435;-62
2023/12/30 06:02:11;;;;;;;2.88;1.35;;;7.30;99.90;;;;;;4984031;28;20035;-61
2023/12/30 06:04:41;;;;;;;2.50;0.20;;;7.20;99.90;;;;;;4980366;28;20446;-62
2023/12/30 06:07:07;;;;;;;0.57;0.50;;;7.20;99.90;;;;;;4983572;28;20038;-61
2023/12/30 06:09:33;;;;;;;2.63;0.70;;;7.20;99.90;;;;;;4975528;28;20023;-61
2023/12/30 06:11:59;;;;;;;2.78;0.70;;;7.20;99.90;;;;;;4982977;28;20076;-62
2023/12/30 06:14:24;;;;;;;5.22;0.80;;;7.30;99.90;;;;;;4982207;28;20113;-61
2023/12/30 06:16:50;;;;;;;6.80;2.03;;;7.30;99.90;;;;;;4982189;28;20133;-61
2023/12/30 06:19:16;;;;;;;15.05;4.40;;;7.40;99.90;;;;;;4981798;28;20026;-62
2023/12/30 06:21:45;;;;;;;13.77;3.85;;;7.40;99.90;;;;;;4983205;28;20558;-61
2023/12/30 06:24:10;;;;;;;6.15;2.13;;;7.40;99.90;;;;;;4981277;28;20518;-61
2023/12/30 06:26:40;;;;;;;14.88;3.35;;;7.40;99.90;;;;;;4980177;28;20038;-61
2023/12/30 06:29:07;;;;;;;2.17;1.10;;;7.30;99.90;;;;;;4980847;28;20105;-61
2023/12/30 06:31:34;;;;;;;1.05;0.70;;;7.30;99.90;;;;;;4980061;28;20066;-61
2023/12/30 06:33:59;;;;;;;10.55;2.55;;;7.40;99.90;;;;;;4981569;28;20673;-61
2023/12/30 06:36:25;;;;;;;12.88;2.55;;;7.30;99.90;;;;;;4980310;28;20118;-61
2023/12/30 06:38:51;;;;;;;2.05;0.60;;;7.30;99.90;;;;;;4982264;28;20053;-62
2023/12/30 06:41:20;;;;;;;0.90;0.43;;;7.30;99.90;;;;;;4979917;28;20027;-61
2023/12/30 06:43:47;;;;;;;0.75;0.30;;;7.30;99.90;;;;;;4980038;28;20553;-61
2023/12/30 06:46:13;;;;;;;0.80;0.20;;;7.30;99.90;;;;;;4979740;28;20035;-61
2023/12/30 06:48:39;;;;;;;1.77;0.40;;;7.40;99.90;;;;;;4984845;28;20037;-61
2023/12/30 06:51:10;;;;;;;2.85;0.50;;;7.40;99.90;;;;;;4978236;28;20054;-61
2023/12/30 06:53:36;;;;;;;2.85;0.40;;;7.30;99.90;;;;;;4984819;28;20031;-61
2023/12/30 06:56:02;;;;;;;1.25;0.73;;;7.40;99.90;;;;;;4978537;28;20042;-61
2023/12/30 06:58:29;;;;;;;0.60;0.50;;;7.40;99.90;;;;;;4982034;28;20036;-61
2023/12/30 07:00:55;;;;;;;4.30;0.60;;;7.40;99.90;;;;;;4978733;28;20031;-61
2023/12/30 07:03:21;;;;;;;1.98;0.35;;;7.50;99.90;;;;;;4982264;28;20758;-61
2023/12/30 07:05:47;;;;;;;3.10;0.52;;;7.60;99.90;;;;;;4980023;28;20521;-61
2023/12/30 07:08:13;;;;;;;5.75;0.40;;;7.60;99.90;;;;;;4979679;28;20125;-61
2023/12/30 07:10:39;;;;;;;2.17;0.98;;;7.60;99.90;;;;;;4981114;28;20061;-61
2023/12/30 07:13:08;;;;;;;4.28;0.52;;;7.60;99.90;;;;;;4976604;28;20029;-61
2023/12/30 07:15:34;;;;;;;3.28;0.40;;;7.60;99.90;;;;;;4975082;28;20129;-61
2023/12/30 07:17:59;;;;;;;2.78;0.65;;;7.60;99.90;;;;;;4979304;28;20081;-61
2023/12/30 07:20:26;;;;;;;1.95;0.45;;;7.40;99.90;;;;;;4982349;28;20162;-61
2023/12/30 07:22:56;;;;;;;3.00;0.60;;;7.30;99.90;;;;;;4982476;28;20026;-62
2023/12/30 07:25:22;;;;;;;1.55;0.50;;;7.20;99.90;;;;;;4982561;28;20145;-61
2023/12/30 07:27:47;;;;;;;1.42;0.70;;;7.10;99.90;;;;;;4977251;28;20035;-61
2023/12/30 07:30:14;;;;;;;3.40;0.60;;;7.10;99.90;;;;;;4982821;28;20046;-61
2023/12/30 07:32:39;;;;;;;5.10;1.20;;;7.00;99.90;;;;;;4976893;28;20041;-61
2023/12/30 07:35:06;;;;;;;2.53;0.80;;;7.00;99.90;;;;;;4981829;28;20031;-61
2023/12/30 07:37:33;;;;;;;4.13;1.10;;;7.00;99.90;;;;;;4979621;28;20066;-61
2023/12/30 07:40:00;;;;;;;3.72;0.50;;;7.10;99.90;;;;;;4980692;28;20034;-61
2023/12/30 07:42:26;;;;;;;1.88;0.50;;;7.10;99.90;;;;;;4962250;28;20117;-63
2023/12/30 07:44:52;;;;;;;2.67;0.50;;;7.10;99.90;;;;;;4973284;28;20138;-62
2023/12/30 07:47:19;;;;;;;6.18;1.88;;;7.00;99.90;;;;;;4975563;28;20141;-62
2023/12/30 07:49:47;;;;;;;9.98;4.57;;;7.10;99.90;;;;;;4980832;28;20034;-62
2023/12/30 07:52:13;;;;;;;7.07;5.80;;;7.10;99.90;;;;;;4979606;28;20867;-61
2023/12/30 07:54:39;;;;;;;5.00;2.20;;;7.10;99.90;;;;;;4978378;28;20038;-61
2023/12/30 07:57:05;;;;;;;4.80;3.75;;;7.10;99.90;;;;;;4979228;28;20062;-61
2023/12/30 07:59:30;;;;;;;10.00;9.00;;;7.10;99.90;;;;;;4984360;28;20114;-61
2023/12/30 08:01:56;;;;;;;3.97;1.92;;;6.90;99.90;;;;;;4978378;28;20085;-60
2023/12/30 08:04:23;;;;;;;8.35;5.05;;;6.90;99.90;;;;;;4978552;28;20030;-62
2023/12/30 08:06:49;;;;;;;34.78;13.27;;;7.00;99.90;;;;;;4973130;28;20031;-60
2023/12/30 08:09:15;;;;;;;38.58;10.77;;;7.00;99.90;;;;;;4973991;28;20035;-61
2023/12/30 08:11:42;;;;;;;27.00;8.40;;;7.00;99.90;;;;;;4982277;28;20041;-61
2023/12/30 08:14:08;;;;;;;36.95;10.25;;;6.90;99.90;;;;;;4974281;28;20038;-64
2023/12/30 08:16:36;;;;;;;32.50;8.98;;;6.90;99.90;;;;;;4983207;28;20061;-62
2023/12/30 08:19:05;;;;;;;20.08;6.07;;;6.90;99.90;;;;;;4976153;28;20042;-62
2023/12/30 08:21:31;;;;;;;24.05;9.18;;;6.90;99.90;;;;;;4980515;28;20034;-62
2023/12/30 08:23:58;;;;;;;13.30;4.05;;;7.00;99.90;;;;;;4977333;28;20023;-62
2023/12/30 08:26:25;;;;;;;13.80;4.50;;;7.00;99.90;;;;;;4974508;28;20034;-62
2023/12/30 08:28:51;;;;;;;13.48;4.20;;;7.10;99.90;;;;;;4974588;28;20030;-62
2023/12/30 08:31:18;;;;;;;5.70;2.50;;;7.10;99.90;;;;;;4976032;28;20065;-62
2023/12/30 08:33:45;;;;;;;8.10;2.80;;;7.00;99.90;;;;;;4977430;28;20145;-63
2023/12/30 08:36:11;;;;;;;8.30;2.53;;;7.20;99.90;;;;;;4976648;28;20571;-62
2023/12/30 08:38:36;;;;;;;10.38;3.60;;;7.20;99.90;;;;;;4980596;28;20030;-62
2023/12/30 08:41:02;;;;;;;5.03;1.75;;;7.10;99.90;;;;;;4978065;28;20092;-60
2023/12/30 08:43:29;;;;;;;3.15;1.33;;;7.20;99.90;;;;;;4981613;28;20121;-60
2023/12/30 08:45:55;;;;;;;4.97;1.73;;;7.30;99.90;;;;;;4977829;28;20023;-62
2023/12/30 08:48:21;;;;;;;5.88;1.60;;;7.40;99.90;;;;;;4983083;28;20585;-61
2023/12/30 08:50:48;;;;;;;4.68;1.05;;;7.40;99.90;;;;;;4976343;28;20030;-62
2023/12/30 08:53:15;;;;;;;6.15;1.90;;;7.50;99.90;;;;;;4976289;28;20042;-60
2023/12/30 08:55:41;;;;;;;7.50;1.75;;;7.60;99.90;;;;;;4971841;28;20035;-61
2023/12/30 08:58:07;;;;;;;11.13;2.10;;;7.60;99.90;;;;;;4976520;28;20027;-60
2023/12/30 09:00:34;;;;;;;4.15;1.15;;;7.50;99.90;;;;;;4976780;28;20077;-61
2023/12/30 09:02:59;;;;;;;5.32;1.20;;;7.60;99.90;;;;;;4979686;28;20038;-61
2023/12/30 09:05:25;;;;;;;4.60;1.10;;;7.50;99.90;;;;;;4979456;28;20026;-62
2023/12/30 09:07:51;;;;;;;2.20;0.75;;;7.40;99.90;;;;;;4979799;28;20062;-60
2023/12/30 09:10:18;;;;;;;3.95;1.30;;;7.60;99.90;;;;;;4978921;28;20104;-61
2023/12/30 09:12:47;;;;;;;6.00;1.05;;;7.60;99.90;;;;;;4982729;28;20027;-60
2023/12/30 09:15:13;;;;;;;5.40;1.15;;;7.80;99.90;;;;;;4982308;28;20046;-62
2023/12/30 09:17:38;;;;;;;4.47;0.80;;;8.00;99.90;;;;;;4981090;28;20049;-61
2023/12/30 09:20:05;;;;;;;2.22;0.90;;;8.30;99.90;;;;;;4982476;28;20022;-62
2023/12/30 09:22:31;;;;;;;16.80;9.07;;;8.50;99.90;;;;;;4981037;28;20030;-62
2023/12/30 09:24:57;;;;;;;6.60;1.98;;;8.70;99.90;;;;;;4979977;28;20026;-62
2023/12/30 09:27:23;;;;;;;3.15;1.63;;;8.90;99.90;;;;;;4981495;28;20052;-62
2023/12/30 09:29:49;;;;;;;5.28;0.98;;;9.00;99.90;;;;;;4983852;28;20034;-62
2023/12/30 09:32:15;;;;;;;6.47;1.38;;;9.00;99.90;;;;;;4983806;28;20770;-63
2023/12/30 09:34:41;;;;;;;7.47;1.38;;;9.10;99.90;;;;;;4985355;28;20030;-60
2023/12/30 09:37:07;;;;;;;8.07;1.90;;;8.90;99.90;;;;;;4975888;28;20046;-64
2023/12/30 09:39:32;;;;;;;7.55;3.15;;;8.80;99.90;;;;;;4985796;28;20745;-63
2023/12/30 09:41:58;;;;;;;10.40;2.70;;;8.70;99.90;;;;;;4979176;28;20512;-64
2023/12/30 09:44:25;;;;;;;5.18;1.52;;;8.70;99.90;;;;;;4986333;28;20092;-64
2023/12/30 09:46:54;;;;;;;5.45;1.50;;;8.60;99.90;;;;;;4982203;28;20038;-64
2023/12/30 09:49:20;;;;;;;6.10;1.38;;;8.60;99.90;;;;;;4979593;28;20026;-64
2023/12/30 09:51:46;;;;;;;9.25;1.60;;;8.60;99.90;;;;;;4980682;28;20081;-62
2023/12/30 09:54:12;;;;;;;5.10;1.98;;;8.60;99.90;;;;;;4980967;28;20074;-63
2023/12/30 09:56:41;;;;;;;6.20;2.17;;;8.80;99.90;;;;;;4979173;28;20034;-62
2023/12/30 09:59:07;;;;;;;6.40;1.40;;;8.60;99.90;;;;;;4980876;28;20117;-62
2023/12/30 10:01:33;;;;;;;11.80;4.18;;;8.60;99.90;;;;;;4982272;28;20109;-59
2023/12/30 10:03:59;;;;;;;4.95;2.17;;;8.70;99.90;;;;;;4979990;28;20034;-61
2023/12/30 10:06:25;;;;;;;7.57;3.55;;;8.70;99.90;;;;;;4980305;28;20026;-62
2023/12/30 10:08:51;;;;;;;4.10;1.88;;;8.70;99.90;;;;;;4979724;28;20110;-62
2023/12/30 10:11:17;;;;;;;13.05;2.35;;;8.60;99.90;;;;;;4978309;28;20124;-62
2023/12/30 10:13:43;;;;;;;4.15;2.03;;;8.50;99.90;;;;;;4982023;28;20038;-62
2023/12/30 10:16:09;;;;;;;4.90;1.95;;;8.50;99.90;;;;;;4982687;28;20043;-60
2023/12/30 10:18:38;;;;;;;11.50;5.03;;;8.60;99.90;;;;;;4981358;28;20897;-61
2023/12/30 10:21:05;;;;;;;10.40;3.92;;;8.80;99.90;;;;;;4983095;28;20115;-60
2023/12/30 10:23:32;;;;;;;9.02;2.80;;;8.80;99.90;;;;;;4979270;28;20026;-62
2023/12/30 10:25:59;;;;;;;9.27;2.33;;;8.80;99.90;;;;;;4981478;28;20066;-60
2023/12/30 10:28:25;;;;;;;6.07;1.50;;;8.90;99.90;;;;;;4981385;28;20101;-62
2023/12/30 10:31:01;;;;;;;4.45;1.33;;;9.00;99.90;;;;;;4981092;28;20034;-60
2023/12/30 10:33:26;;;;;;;6.53;2.78;;;8.90;99.90;;;;;;4980454;28;20069;-61
2023/12/30 10:35:55;;;;;;;8.00;2.20;;;9.00;99.90;;;;;;4977788;28;20077;-60
2023/12/30 10:38:22;;;;;;;3.40;1.23;;;9.10;99.90;;;;;;4981120;28;20062;-60
2023/12/30 10:40:48;;;;;;;5.07;1.60;;;9.20;99.90;;;;;;4985387;28;20498;-62
2023/12/30 10:43:13;;;;;;;9.68;1.30;;;9.30;99.90;;;;;;4981150;28;20033;-62
2023/12/30 10:45:40;;;;;;;6.18;1.48;;;9.20;99.90;;;;;;4979163;28;20031;-62
2023/12/30 10:48:07;;;;;;;5.97;1.40;;;9.30;99.90;;;;;;4982712;28;20039;-61
2023/12/30 10:50:35;;;;;;;5.78;1.50;;;9.30;99.90;;;;;;4979472;28;20042;-61
2023/12/30 10:53:23;;;;;;;6.10;1.80;;;9.40;99.90;;;;;;4980881;28;20201;-60
2023/12/30 10:55:53;;;;;;;4.53;1.42;;;9.40;99.90;;;;;;4983049;28;20116;-61
2023/12/30 10:58:20;;;;;;;3.17;1.13;;;9.40;99.90;;;;;;4982039;28;20030;-61
2023/12/30 11:00:53;;;;;;;3.92;1.00;;;9.40;99.90;;;;;;4978871;28;20031;-61
2023/12/30 11:03:20;;;;;;;2.22;0.90;;;9.20;99.90;;;;;;4982164;28;20038;-62
2023/12/30 11:06:04;;;;;;;5.70;1.20;;;9.20;99.90;;;;;;4978092;28;20518;-62
2023/12/30 11:08:30;;;;;;;4.10;1.00;;;9.30;99.90;;;;;;4981056;28;20030;-63
2023/12/30 11:11:02;;;;;;;3.42;1.00;;;9.40;99.90;;;;;;4979046;28;20431;-63
2023/12/30 11:13:35;;;;;;;5.88;1.83;;;9.60;99.90;;;;;;4977224;28;20031;-62
2023/12/30 11:16:19;;;;;;;6.80;2.65;;;9.30;99.90;;;;;;4973711;28;20070;-60
2023/12/30 11:18:53;;;;;;;8.90;3.88;;;9.30;99.90;;;;;;4976510;28;20038;-65
2023/12/30 11:21:38;;;;;;;5.32;1.20;;;9.50;99.90;;;;;;4978155;28;20029;-65
2023/12/30 11:24:09;;;;;;;9.27;1.40;;;9.50;99.90;;;;;;4980003;28;20131;-65
2023/12/30 11:26:37;;;;;;;7.38;1.98;;;9.40;99.90;;;;;;4980077;28;20394;-64
2023/12/30 11:29:04;;;;;;;8.07;2.08;;;9.50;99.90;;;;;;4979202;28;20677;-64
2023/12/30 11:31:37;;;;;;;4.40;1.80;;;9.50;99.90;;;;;;4975517;28;20567;-64
2023/12/30 11:34:06;;;;;;;12.32;3.10;;;9.60;99.90;;;;;;4986538;28;20037;-64
2023/12/30 11:36:32;;;;;;;7.05;2.25;;;9.70;99.90;;;;;;4978516;28;20026;-65
2023/12/30 11:38:59;;;;;;;9.98;1.88;;;9.60;99.90;;;;;;4983505;28;20038;-64
2023/12/30 11:41:27;;;;;;;11.65;4.15;;;9.60;99.90;;;;;;4982119;28;20092;-65
2023/12/30 11:44:03;;;;;;;14.80;5.45;;;9.70;99.90;;;;;;4984534;28;20391;-66
2023/12/30 11:46:29;;;;;;;;;;;9.70;99.90;;;;;;4977882;28;20027;-66
2023/12/30 11:48:59;;;;;;;3.65;1.30;;;9.60;99.90;;;;;;4983003;28;19924;-65
2023/12/30 11:51:29;;;;;;;4.60;2.35;;;9.70;99.90;;;;;;4985863;28;20104;-65
2023/12/30 11:53:55;;;;;;;7.22;2.20;;;9.70;99.90;;;;;;4979916;28;20030;-64
2023/12/30 11:56:22;;;;;;;8.68;2.70;;;9.50;99.90;;;;;;4980163;28;20073;-64
2023/12/30 11:58:50;;;;;;;4.95;2.03;;;9.40;99.90;;;;;;4977592;28;20104;-67
2023/12/30 12:01:18;;;;;;;4.38;1.48;;;9.30;99.90;;;;;;4981272;28;20109;-65
2023/12/30 12:03:44;;;;;;;2.60;1.20;;;9.40;99.90;;;;;;4981716;28;20042;-66
2023/12/30 12:06:11;;;;;;;6.80;1.55;;;9.50;99.90;;;;;;4977964;28;20031;-64
2023/12/30 12:08:37;;;;;;;6.05;1.98;;;9.50;99.90;;;;;;4974813;28;20046;-65
2023/12/30 12:11:03;;;;;;;5.40;1.70;;;9.40;99.90;;;;;;4979171;28;20133;-64
2023/12/30 12:13:29;;;;;;;5.35;1.42;;;9.20;99.90;;;;;;4977511;28;20026;-65
2023/12/30 12:15:56;;;;;;;5.53;1.20;;;9.30;99.90;;;;;;4984084;28;20541;-64
2023/12/30 12:18:22;;;;;;;4.88;1.48;;;9.40;99.90;;;;;;4978023;28;20044;-65
2023/12/30 12:20:49;;;;;;;7.95;1.50;;;9.40;99.90;;;;;;4980875;28;20118;-64
2023/12/30 12:23:16;;;;;;;3.55;1.30;;;9.50;99.90;;;;;;4981120;28;20137;-64
2023/12/30 12:25:43;;;;;;;3.58;1.60;;;9.60;99.90;;;;;;4985928;28;20068;-64
2023/12/30 12:28:11;;;;;;;5.88;1.73;;;9.70;99.90;;;;;;4986189;28;20043;-64
2023/12/30 12:30:38;;;;;;;3.92;1.35;;;9.80;99.90;;;;;;4985752;28;20030;-64
2023/12/30 12:33:04;;;;;;;5.28;1.90;;;9.70;99.90;;;;;;4986072;28;20030;-65
2023/12/30 12:35:31;;;;;;;3.42;1.13;;;9.70;99.90;;;;;;4985823;28;20035;-65
2023/12/30 12:37:57;;;;;;;3.80;1.17;;;9.50;99.90;;;;;;4977522;28;20029;-65
2023/12/30 12:40:24;;;;;;;14.65;1.55;;;9.60;99.90;;;;;;4985614;28;20034;-68
2023/12/30 12:42:49;;;;;;;6.38;1.23;;;9.70;99.90;;;;;;4985720;28;20054;-66
2023/12/30 12:45:16;;;;;;;6.70;1.30;;;9.80;99.90;;;;;;4985754;28;20097;-64
2023/12/30 12:47:41;;;;;;;5.65;1.85;;;9.80;99.90;;;;;;4986886;28;20053;-67
2023/12/30 12:50:07;;;;;;;3.53;1.10;;;9.90;99.90;;;;;;4989431;28;20069;-65
2023/12/30 12:52:33;;;;;;;5.20;1.50;;;9.90;99.90;;;;;;4984521;28;20038;-64